Saint Petersburg, Russia
Current Conditions -  °F | °C
As of 2:00 PM on Thursday 23 Oct 2014 (Local Time) from ULLI Reporting Station
Broken Clouds Broken Clouds  
Wind Chill: -1°   Ceiling: 20000
Heat Index: -1°   Visibility: 6mi
Dew Point: -7°   Wind: 2mph
Humidity: 64%   Direction: NA
Pressure: 30.59"   Gusts: NA
Location:  59.93°N, 30.32°E
Report Text: ULLI 231100Z VRB01MPS 9999 SCT030 BKN200 M01/M07 Q1036 88410250NOSIG
Loading
Personal Weather Stations






























Interactive Weather Map
Tropical Storm Tracking
New forecast layout! Learn more

10-Day Weather Forecast

Advertisements
Track Severe Weather on mobile